vendredi 11 avril 2014

ALERTE SPOTTING 11/04/14

73H D-AHFS Air Berlin (blanc avec titre)
   AB8154/AB8155   07h55/ 08h45

320 F-GHQE Air Corsica (blanc avec titre)
   XK4501/XK4500  07h35/08h30

32A EC-LVP Vueling (couleur Linking Europe)
   dpt  VY8007  06h55
   VY8008/VY8017  10h50/13h25
 
313 CS-TEX Hifly
   TP436/TP437  10h20/11h05

744 EC-KQC Pullmantur Air
   arv PLM602P  20h40

77W F-GZNF Air France
   arv AF375Y  14h10

E95 EC-LFZ Air Europa (sticker)
  UX1025/UX1026  19h20/20h10

321 EC-IXD Iberia (nouvelle couleur)
  IB3410/IB3411  19h30/20h15


Manque les prévisions/immats BE / certains IB / AZ / TP / TU / BA / AH / KM
*** Heures en Local Time **
Prévisions matinales soumises à modifications de dernières minute. Voir le log du mois pour la version 'définitive' de la journée: http://www.airkalo.com/ORLYAVIATION/Logdumois.html

le TAF de la journée:
METAR: LFPO 110230Z 35005KT CAVOK 09/05 Q1017 NOSIG=
TAF LONG: LFPO 102300Z 1100/1206 02005KT CAVOK=